Time;durP1;ratioP1;P1;durP2;ratioP2;P2;SDS_P1;SDS_P2;PMS_P1;PMS_P2;Temp;Humidity;BMP_temperature;BMP_pressure;BME280_temperature;BME280_humidity;BME280_pressure;Samples;Min_cycle;Max_cycle;Signal;HPM_P1;HPM_P2
2022/11/22 00:01:09;;;;;;;37.20;16.90;;;;;;;;;;5043705;28;20407;-76
2022/11/22 00:03:35;;;;;;;36.22;18.70;;;;;;;;;;5050873;28;20099;-76
2022/11/22 00:06:01;;;;;;;36.60;17.63;;;;;;;;;;5052744;28;20487;-76
2022/11/22 00:08:27;;;;;;;38.40;18.08;;;;;;;;;;5054964;28;20052;-76
2022/11/22 00:10:53;;;;;;;37.72;17.02;;;;;;;;;;5051904;28;20037;-74
2022/11/22 00:13:20;;;;;;;36.10;17.38;;;;;;;;;;5051659;28;20045;-74
2022/11/22 00:15:57;;;;;;;33.35;15.93;;;;;;;;;;5047709;28;20053;-76
2022/11/22 00:18:23;;;;;;;35.58;16.73;;;;;;;;;;5043234;28;20053;-76
2022/11/22 00:20:49;;;;;;;35.88;16.55;;;;;;;;;;5053473;28;20088;-76
2022/11/22 00:23:15;;;;;;;33.38;16.58;;;;;;;;;;5036678;28;20042;-76
2022/11/22 00:25:41;;;;;;;36.25;17.73;;;;;;;;;;5049496;28;20040;-77
2022/11/22 00:28:07;;;;;;;36.72;16.50;;;;;;;;;;5045319;28;20120;-77
2022/11/22 00:30:33;;;;;;;31.63;15.60;;;;;;;;;;5054582;28;20044;-76
2022/11/22 00:32:59;;;;;;;32.97;17.08;;;;;;;;;;5046279;28;20605;-76
2022/11/22 00:35:25;;;;;;;31.52;13.82;;;;;;;;;;5050269;28;20120;-76
2022/11/22 00:37:51;;;;;;;32.17;16.33;;;;;;;;;;5051371;28;20041;-76
2022/11/22 00:40:17;;;;;;;26.52;13.63;;;;;;;;;;5040633;28;20065;-76
2022/11/22 00:42:44;;;;;;;32.05;15.70;;;;;;;;;;5053707;28;20098;-76
2022/11/22 00:45:10;;;;;;;32.78;15.75;;;;;;;;;;5046375;28;20052;-76
2022/11/22 00:47:36;;;;;;;33.40;15.95;;;;;;;;;;5042753;28;20052;-76
2022/11/22 00:50:02;;;;;;;31.70;15.82;;;;;;;;;;5040532;28;20041;-76
2022/11/22 00:52:28;;;;;;;31.13;15.20;;;;;;;;;;5053623;28;20427;-76
2022/11/22 00:54:54;;;;;;;31.30;15.13;;;;;;;;;;5034307;28;20582;-76
2022/11/22 00:57:20;;;;;;;28.02;14.63;;;;;;;;;;5049282;28;20467;-76
2022/11/22 00:59:46;;;;;;;26.60;14.30;;;;;;;;;;5053949;28;20051;-76
2022/11/22 01:02:12;;;;;;;29.15;15.18;;;;;;;;;;5051189;28;20041;-76
2022/11/22 01:04:38;;;;;;;31.55;15.40;;;;;;;;;;5052789;28;20138;-76
2022/11/22 01:07:04;;;;;;;28.67;14.50;;;;;;;;;;5053430;28;20514;-76
2022/11/22 01:09:30;;;;;;;29.90;15.45;;;;;;;;;;5053897;28;20120;-76
2022/11/22 01:11:56;;;;;;;27.67;14.48;;;;;;;;;;5049201;28;20047;-76
2022/11/22 01:14:22;;;;;;;26.42;14.65;;;;;;;;;;5044994;28;20053;-76
2022/11/22 01:16:48;;;;;;;30.00;14.50;;;;;;;;;;5034200;28;20049;-77
2022/11/22 01:19:14;;;;;;;25.90;13.77;;;;;;;;;;5040271;28;20179;-76
2022/11/22 01:21:40;;;;;;;27.05;14.18;;;;;;;;;;5051924;28;20051;-77
2022/11/22 01:24:07;;;;;;;23.90;13.50;;;;;;;;;;5052511;28;20139;-77
2022/11/22 01:26:33;;;;;;;25.38;13.30;;;;;;;;;;5051007;28;20053;-76
2022/11/22 01:28:59;;;;;;;25.60;14.27;;;;;;;;;;5051902;28;20048;-77
2022/11/22 01:31:25;;;;;;;25.73;12.70;;;;;;;;;;5052194;28;20522;-76
2022/11/22 01:33:51;;;;;;;28.42;14.85;;;;;;;;;;5051163;28;20041;-76
2022/11/22 01:36:17;;;;;;;26.20;13.23;;;;;;;;;;5050257;28;20041;-77
2022/11/22 01:38:43;;;;;;;26.55;14.23;;;;;;;;;;5048665;28;20053;-77
2022/11/22 01:41:10;;;;;;;28.65;14.52;;;;;;;;;;5047481;28;20048;-77
2022/11/22 01:43:36;;;;;;;27.88;13.95;;;;;;;;;;5038234;28;20069;-77
2022/11/22 01:46:04;;;;;;;30.60;15.27;;;;;;;;;;5051720;28;20045;-77
2022/11/22 01:48:30;;;;;;;27.65;15.50;;;;;;;;;;5053187;28;20037;-77
2022/11/22 01:50:59;;;;;;;24.08;12.85;;;;;;;;;;5031296;28;20041;-77
2022/11/22 01:53:27;;;;;;;27.50;15.68;;;;;;;;;;5052901;28;20083;-77
2022/11/22 01:55:54;;;;;;;28.58;14.38;;;;;;;;;;5049921;28;20037;-77
2022/11/22 01:58:21;;;;;;;27.27;14.88;;;;;;;;;;5051485;28;20098;-77
2022/11/22 02:00:48;;;;;;;27.20;15.05;;;;;;;;;;5049703;28;20069;-77
2022/11/22 02:03:15;;;;;;;35.00;16.10;;;;;;;;;;5052619;28;20539;-77
2022/11/22 02:05:41;;;;;;;30.60;15.65;;;;;;;;;;5040136;28;20037;-77
2022/11/22 02:08:23;;;;;;;30.25;14.85;;;;;;;;;;5053259;28;20176;-77
2022/11/22 02:10:51;;;;;;;28.40;15.23;;;;;;;;;;5050620;28;20049;-77
2022/11/22 02:13:19;;;;;;;27.67;14.18;;;;;;;;;;5053580;28;20179;-77
2022/11/22 02:15:45;;;;;;;27.60;14.07;;;;;;;;;;5042598;28;20050;-77
2022/11/22 02:18:11;;;;;;;29.20;16.17;;;;;;;;;;5041712;28;20053;-77
2022/11/22 02:20:38;;;;;;;30.80;15.25;;;;;;;;;;5049141;28;20040;-77
2022/11/22 02:23:05;;;;;;;28.75;15.43;;;;;;;;;;5044385;28;20043;-77
2022/11/22 02:25:31;;;;;;;29.95;14.77;;;;;;;;;;5052385;28;20060;-77
2022/11/22 02:27:57;;;;;;;31.33;17.05;;;;;;;;;;5052085;28;20029;-77
2022/11/22 02:30:24;;;;;;;32.53;17.55;;;;;;;;;;5052007;28;20099;-77
2022/11/22 02:32:50;;;;;;;28.98;15.65;;;;;;;;;;5052552;28;20456;-77
2022/11/22 02:35:16;;;;;;;31.85;16.65;;;;;;;;;;5055994;28;20041;-77
2022/11/22 02:37:42;;;;;;;31.20;17.05;;;;;;;;;;5046403;28;20116;-77
2022/11/22 02:40:12;;;;;;;35.05;15.93;;;;;;;;;;5040850;28;20120;-77
2022/11/22 02:42:38;;;;;;;29.20;15.75;;;;;;;;;;5047214;28;20041;-77
2022/11/22 02:45:04;;;;;;;29.88;16.50;;;;;;;;;;5056677;28;20044;-77
2022/11/22 02:47:30;;;;;;;30.17;15.63;;;;;;;;;;5055471;28;20120;-77
2022/11/22 02:49:56;;;;;;;33.35;16.55;;;;;;;;;;5055653;28;20124;-77
2022/11/22 02:52:22;;;;;;;32.35;15.95;;;;;;;;;;5056870;28;20125;-76
2022/11/22 02:54:48;;;;;;;31.45;16.67;;;;;;;;;;5051436;28;20045;-77
2022/11/22 02:57:14;;;;;;;34.67;16.73;;;;;;;;;;5058299;28;20040;-77
2022/11/22 02:59:40;;;;;;;32.03;16.95;;;;;;;;;;5059061;28;20041;-77
2022/11/22 03:02:06;;;;;;;28.83;14.98;;;;;;;;;;5057129;28;20128;-77
2022/11/22 03:04:32;;;;;;;32.78;16.45;;;;;;;;;;5041448;28;20130;-77
2022/11/22 03:07:00;;;;;;;33.70;15.63;;;;;;;;;;5049074;28;20090;-77
2022/11/22 03:09:27;;;;;;;32.83;16.88;;;;;;;;;;5042464;28;20077;-77
2022/11/22 03:11:53;;;;;;;37.10;17.60;;;;;;;;;;5052483;28;20037;-77
2022/11/22 03:14:19;;;;;;;35.97;17.25;;;;;;;;;;5058739;28;20049;-77
2022/11/22 03:16:46;;;;;;;30.73;16.58;;;;;;;;;;5058273;28;20079;-77
2022/11/22 03:19:12;;;;;;;32.00;16.05;;;;;;;;;;5057272;28;20052;-77
2022/11/22 03:21:39;;;;;;;30.95;15.05;;;;;;;;;;5058244;28;20049;-77
2022/11/22 03:24:06;;;;;;;34.75;17.35;;;;;;;;;;5052938;28;20050;-77
2022/11/22 03:26:32;;;;;;;33.72;16.90;;;;;;;;;;5052178;28;20052;-78
2022/11/22 03:28:59;;;;;;;31.48;15.25;;;;;;;;;;5060640;28;20045;-78
2022/11/22 03:31:25;;;;;;;31.63;16.02;;;;;;;;;;5051258;28;20044;-78
2022/11/22 03:33:51;;;;;;;32.25;15.88;;;;;;;;;;5056633;28;20087;-78
2022/11/22 03:36:17;;;;;;;29.85;15.77;;;;;;;;;;5056303;28;20041;-78
2022/11/22 03:38:43;;;;;;;31.27;15.68;;;;;;;;;;5055267;28;20487;-78
2022/11/22 03:41:09;;;;;;;35.28;17.45;;;;;;;;;;5056096;28;20056;-78
2022/11/22 03:43:35;;;;;;;28.85;14.65;;;;;;;;;;5032888;28;20052;-78
2022/11/22 03:46:01;;;;;;;35.63;18.23;;;;;;;;;;5055441;28;20043;-78
2022/11/22 03:48:27;;;;;;;28.40;15.43;;;;;;;;;;5055477;28;20037;-78
2022/11/22 03:50:53;;;;;;;30.80;16.08;;;;;;;;;;5056139;28;20041;-78
2022/11/22 03:53:19;;;;;;;30.52;15.73;;;;;;;;;;5055601;28;20066;-78
2022/11/22 03:55:45;;;;;;;32.63;16.52;;;;;;;;;;5053822;28;20080;-78
2022/11/22 03:58:11;;;;;;;34.42;17.73;;;;;;;;;;5050445;28;20069;-78
2022/11/22 04:00:38;;;;;;;30.13;15.80;;;;;;;;;;5054694;28;20044;-78
2022/11/22 04:03:04;;;;;;;35.92;16.85;;;;;;;;;;5055686;28;20037;-78
2022/11/22 04:05:30;;;;;;;34.83;17.13;;;;;;;;;;5054833;28;20073;-78
2022/11/22 04:07:56;;;;;;;30.33;15.73;;;;;;;;;;5055591;28;20045;-78
2022/11/22 04:10:22;;;;;;;32.00;16.63;;;;;;;;;;5055636;28;20048;-78
2022/11/22 04:12:48;;;;;;;32.40;15.77;;;;;;;;;;5054892;28;20190;-78
2022/11/22 04:15:15;;;;;;;32.00;15.48;;;;;;;;;;5055292;28;20080;-78
2022/11/22 04:17:43;;;;;;;32.88;17.20;;;;;;;;;;5055420;28;20067;-78
2022/11/22 04:22:58;;;;;;;30.67;16.70;;;;;;;;;;5054853;28;20086;-78
2022/11/22 04:25:25;;;;;;;32.92;16.63;;;;;;;;;;5041893;28;20560;-78
2022/11/22 04:27:51;;;;;;;31.50;15.77;;;;;;;;;;5055481;28;20544;-78
2022/11/22 04:30:17;;;;;;;28.75;16.02;;;;;;;;;;5055046;28;20119;-78
2022/11/22 04:32:46;;;;;;;32.20;15.80;;;;;;;;;;5054895;28;20040;-78
2022/11/22 04:35:17;;;;;;;30.83;16.77;;;;;;;;;;5052271;28;20042;-78
2022/11/22 04:37:49;;;;;;;30.00;16.25;;;;;;;;;;5043980;28;20487;-78
2022/11/22 04:40:15;;;;;;;31.73;16.50;;;;;;;;;;5055882;28;20136;-78
2022/11/22 04:45:26;;;;;;;31.40;16.20;;;;;;;;;;5042951;28;20048;-78
2022/11/22 04:47:58;;;;;;;36.13;16.65;;;;;;;;;;5053681;28;20041;-78
2022/11/22 04:53:19;;;;;;;36.58;17.30;;;;;;;;;;5029589;28;20076;-78
2022/11/22 04:55:46;;;;;;;29.30;16.05;;;;;;;;;;5054543;28;20094;-78
2022/11/22 04:58:13;;;;;;;34.10;17.38;;;;;;;;;;5053907;28;20076;-78
2022/11/22 05:00:39;;;;;;;34.53;17.30;;;;;;;;;;5054812;28;20048;-78
2022/11/22 05:03:05;;;;;;;33.78;19.08;;;;;;;;;;5054994;28;20120;-78
2022/11/22 05:05:35;;;;;;;29.23;16.20;;;;;;;;;;5053419;28;20041;-78
2022/11/22 05:08:01;;;;;;;36.78;18.05;;;;;;;;;;5054956;28;20056;-78
2022/11/22 05:10:27;;;;;;;37.97;19.40;;;;;;;;;;5054410;28;20042;-78
2022/11/22 05:12:53;;;;;;;35.40;18.85;;;;;;;;;;5054198;28;20045;-78
2022/11/22 05:15:19;;;;;;;31.45;17.42;;;;;;;;;;5053980;28;20092;-78
2022/11/22 05:17:45;;;;;;;32.58;18.83;;;;;;;;;;5054121;28;20138;-78
2022/11/22 05:20:11;;;;;;;31.17;17.55;;;;;;;;;;5054089;28;20044;-78
2022/11/22 05:25:22;;;;;;;32.55;18.08;;;;;;;;;;5044756;28;20045;-78
2022/11/22 05:27:52;;;;;;;33.13;18.60;;;;;;;;;;5049153;28;20049;-78
2022/11/22 05:30:18;;;;;;;32.33;18.10;;;;;;;;;;5054000;28;20064;-78
2022/11/22 05:32:44;;;;;;;33.70;18.77;;;;;;;;;;5054318;28;20049;-78
2022/11/22 05:35:10;;;;;;;34.20;19.08;;;;;;;;;;5053373;28;20044;-78
2022/11/22 05:37:36;;;;;;;36.38;20.05;;;;;;;;;;5039262;28;20494;-78
2022/11/22 05:40:02;;;;;;;34.78;18.73;;;;;;;;;;5051724;28;20044;-78
2022/11/22 05:42:28;;;;;;;31.13;17.80;;;;;;;;;;5052064;28;20033;-78
2022/11/22 05:44:54;;;;;;;32.30;17.20;;;;;;;;;;5052971;28;20079;-78
2022/11/22 05:47:20;;;;;;;35.72;17.75;;;;;;;;;;5051471;28;20053;-78
2022/11/22 05:49:46;;;;;;;34.55;18.20;;;;;;;;;;5041628;28;20590;-79
2022/11/22 05:52:12;;;;;;;32.88;18.48;;;;;;;;;;5040025;28;20048;-78
2022/11/22 05:54:39;;;;;;;36.17;18.17;;;;;;;;;;5053396;28;20059;-78
2022/11/22 05:57:05;;;;;;;35.60;18.95;;;;;;;;;;5053510;28;20048;-78
2022/11/22 05:59:31;;;;;;;37.42;18.60;;;;;;;;;;5053420;28;20033;-78
2022/11/22 06:01:57;;;;;;;36.10;18.25;;;;;;;;;;5053172;28;20061;-78
2022/11/22 06:04:23;;;;;;;36.92;18.48;;;;;;;;;;5053349;28;20071;-78
2022/11/22 06:06:49;;;;;;;32.83;18.85;;;;;;;;;;5053321;28;20064;-78
2022/11/22 06:09:15;;;;;;;33.83;18.90;;;;;;;;;;5048303;28;20042;-78
2022/11/22 06:11:41;;;;;;;35.13;19.23;;;;;;;;;;5048920;28;20117;-78
2022/11/22 06:14:08;;;;;;;29.67;17.60;;;;;;;;;;5056923;28;20127;-78
2022/11/22 06:16:34;;;;;;;30.67;18.00;;;;;;;;;;5048215;28;20123;-78
2022/11/22 06:19:00;;;;;;;30.13;17.15;;;;;;;;;;5057080;28;20052;-78
2022/11/22 06:21:27;;;;;;;32.70;18.90;;;;;;;;;;5052034;28;20049;-78
2022/11/22 06:23:54;;;;;;;32.65;18.52;;;;;;;;;;5054077;28;20461;-78
2022/11/22 06:26:20;;;;;;;32.72;18.83;;;;;;;;;;5057505;28;20048;-78
2022/11/22 06:28:47;;;;;;;34.10;18.70;;;;;;;;;;5057524;28;20502;-78
2022/11/22 06:31:21;;;;;;;29.92;17.48;;;;;;;;;;5053412;28;20041;-78
2022/11/22 06:33:47;;;;;;;29.23;16.88;;;;;;;;;;5055838;28;20045;-78
2022/11/22 06:36:24;;;;;;;31.35;17.08;;;;;;;;;;5054233;28;20044;-78
2022/11/22 06:38:50;;;;;;;33.08;17.23;;;;;;;;;;5060012;28;20077;-78
2022/11/22 06:41:18;;;;;;;33.33;17.20;;;;;;;;;;5059456;28;20124;-78
2022/11/22 06:43:45;;;;;;;31.75;17.75;;;;;;;;;;5059087;28;20445;-78
2022/11/22 06:46:11;;;;;;;34.75;17.33;;;;;;;;;;5056191;28;20128;-78
2022/11/22 06:48:38;;;;;;;30.80;16.35;;;;;;;;;;5055998;28;20045;-79
2022/11/22 06:51:09;;;;;;;32.90;17.70;;;;;;;;;;5057469;28;20072;-78
2022/11/22 06:53:35;;;;;;;29.85;15.73;;;;;;;;;;5056622;28;20116;-78
2022/11/22 06:56:12;;;;;;;34.55;17.45;;;;;;;;;;5046009;28;20099;-78
2022/11/22 06:58:38;;;;;;;27.80;16.10;;;;;;;;;;5055180;28;20037;-78
2022/11/22 07:01:09;;;;;;;34.60;17.25;;;;;;;;;;5054650;28;20109;-79
2022/11/22 07:03:36;;;;;;;32.42;17.17;;;;;;;;;;5053938;28;20041;-78
2022/11/22 07:06:02;;;;;;;31.75;14.80;;;;;;;;;;5058315;28;20044;-77
2022/11/22 07:08:29;;;;;;;29.52;16.58;;;;;;;;;;5055170;28;20040;-78
2022/11/22 07:10:55;;;;;;;28.42;16.38;;;;;;;;;;5038709;28;20120;-78
2022/11/22 07:13:21;;;;;;;26.10;15.32;;;;;;;;;;5056350;28;20235;-78
2022/11/22 07:15:54;;;;;;;31.00;15.52;;;;;;;;;;5042253;28;20052;-78
2022/11/22 07:18:21;;;;;;;28.35;15.48;;;;;;;;;;5048895;28;20049;-78
2022/11/22 07:20:47;;;;;;;29.33;15.10;;;;;;;;;;5051783;28;20044;-78
2022/11/22 07:23:14;;;;;;;32.17;15.63;;;;;;;;;;5049767;28;20041;-78
2022/11/22 07:25:43;;;;;;;28.30;14.90;;;;;;;;;;5055933;28;20053;-78
2022/11/22 07:28:09;;;;;;;27.90;14.38;;;;;;;;;;5056823;28;20060;-78
2022/11/22 07:30:35;;;;;;;28.73;13.27;;;;;;;;;;5055094;28;20037;-78
2022/11/22 07:33:01;;;;;;;24.90;14.23;;;;;;;;;;5055020;28;20084;-78
2022/11/22 07:35:28;;;;;;;26.48;13.07;;;;;;;;;;5056343;28;20052;-78
2022/11/22 07:37:54;;;;;;;28.80;13.40;;;;;;;;;;5055484;28;20442;-78
2022/11/22 07:40:20;;;;;;;25.90;13.05;;;;;;;;;;5054609;28;20070;-78
2022/11/22 07:42:46;;;;;;;23.52;12.77;;;;;;;;;;5045085;28;20085;-78
2022/11/22 07:45:12;;;;;;;21.30;12.68;;;;;;;;;;5056016;28;20101;-78
2022/11/22 07:47:38;;;;;;;25.17;12.32;;;;;;;;;;5047099;28;20415;-78
2022/11/22 07:50:04;;;;;;;22.08;10.65;;;;;;;;;;5054200;28;20045;-78
2022/11/22 07:52:30;;;;;;;17.95;10.18;;;;;;;;;;5055782;28;20487;-78
2022/11/22 07:54:56;;;;;;;25.27;10.43;;;;;;;;;;5050932;28;20075;-78
2022/11/22 07:57:22;;;;;;;20.92;9.27;;;;;;;;;;5055551;28;20064;-78
2022/11/22 07:59:48;;;;;;;18.52;10.40;;;;;;;;;;5055937;28;20044;-78
2022/11/22 08:02:14;;;;;;;16.08;8.95;;;;;;;;;;5040349;28;20045;-78
2022/11/22 08:04:40;;;;;;;19.08;7.55;;;;;;;;;;5055536;28;20475;-78
2022/11/22 08:07:06;;;;;;;22.67;9.52;;;;;;;;;;5054059;28;20041;-78
2022/11/22 08:09:32;;;;;;;21.60;8.18;;;;;;;;;;5055926;28;20045;-81
2022/11/22 08:11:58;;;;;;;11.73;7.32;;;;;;;;;;5056875;28;20041;-78
2022/11/22 08:14:24;;;;;;;17.48;7.47;;;;;;;;;;5055704;28;20136;-78
2022/11/22 08:16:50;;;;;;;16.42;7.93;;;;;;;;;;5057750;28;20109;-78
2022/11/22 08:19:16;;;;;;;18.13;7.45;;;;;;;;;;5056092;28;20072;-78
2022/11/22 08:21:47;;;;;;;15.90;7.05;;;;;;;;;;5054422;28;20467;-78
2022/11/22 08:24:13;;;;;;;19.25;7.10;;;;;;;;;;5051977;28;20071;-78
2022/11/22 08:26:39;;;;;;;13.30;6.93;;;;;;;;;;5049974;28;20064;-78
2022/11/22 08:29:09;;;;;;;17.08;7.00;;;;;;;;;;5050271;28;20045;-78
2022/11/22 08:31:35;;;;;;;17.00;7.30;;;;;;;;;;5054379;28;20048;-78
2022/11/22 08:34:01;;;;;;;17.05;6.72;;;;;;;;;;5055543;28;20052;-78
2022/11/22 08:36:27;;;;;;;13.75;7.18;;;;;;;;;;5053093;28;20091;-78
2022/11/22 08:38:54;;;;;;;15.27;6.60;;;;;;;;;;5055548;28;20049;-78
2022/11/22 08:41:20;;;;;;;13.95;6.40;;;;;;;;;;5054257;28;20048;-78
2022/11/22 08:43:48;;;;;;;11.25;5.90;;;;;;;;;;5057380;28;20044;-80
2022/11/22 08:46:14;;;;;;;14.77;5.72;;;;;;;;;;5024590;28;20041;-80
2022/11/22 08:48:40;;;;;;;14.98;6.22;;;;;;;;;;5042910;28;20059;-80
2022/11/22 08:51:08;;;;;;;10.18;5.20;;;;;;;;;;5056859;28;20045;-80
2022/11/22 08:53:34;;;;;;;10.60;5.72;;;;;;;;;;5055695;28;20056;-80
2022/11/22 08:56:01;;;;;;;13.75;6.00;;;;;;;;;;5056214;28;20047;-80
2022/11/22 08:58:29;;;;;;;13.32;5.78;;;;;;;;;;5056189;28;20044;-80
2022/11/22 09:00:56;;;;;;;15.80;6.78;;;;;;;;;;5056054;28;20049;-80
2022/11/22 09:03:22;;;;;;;10.68;6.25;;;;;;;;;;5055624;28;20522;-80
2022/11/22 09:05:48;;;;;;;13.20;5.55;;;;;;;;;;5041103;28;20508;-80
2022/11/22 09:08:14;;;;;;;14.20;6.40;;;;;;;;;;5042798;28;20049;-80
2022/11/22 09:10:40;;;;;;;14.07;5.80;;;;;;;;;;5055418;28;20412;-81
2022/11/22 09:13:06;;;;;;;14.57;5.93;;;;;;;;;;5030780;28;20602;-80
2022/11/22 09:15:32;;;;;;;9.85;5.80;;;;;;;;;;5053704;28;20127;-79
2022/11/22 09:18:02;;;;;;;9.95;5.53;;;;;;;;;;5065032;28;20115;-80
2022/11/22 09:20:29;;;;;;;10.40;5.68;;;;;;;;;;5066130;28;20053;-82
2022/11/22 09:22:55;;;;;;;11.20;5.15;;;;;;;;;;5053812;28;20059;-82
2022/11/22 09:25:21;;;;;;;12.00;5.50;;;;;;;;;;5070680;28;20049;-82
2022/11/22 09:27:47;;;;;;;11.43;6.22;;;;;;;;;;5055560;28;20045;-82
2022/11/22 09:30:13;;;;;;;9.48;5.45;;;;;;;;;;5052961;28;20044;-82
2022/11/22 09:32:39;;;;;;;13.05;6.43;;;;;;;;;;5035257;28;20457;-82
2022/11/22 09:35:05;;;;;;;13.27;5.50;;;;;;;;;;5033968;28;20487;-82
2022/11/22 09:37:31;;;;;;;11.30;4.85;;;;;;;;;;5051211;28;20044;-81
2022/11/22 09:39:57;;;;;;;13.57;5.65;;;;;;;;;;5053683;28;20049;-81
2022/11/22 09:42:23;;;;;;;11.82;5.22;;;;;;;;;;5054641;28;20048;-79
2022/11/22 09:44:58;;;;;;;10.98;5.55;;;;;;;;;;5056626;28;20461;-81
2022/11/22 09:47:41;;;;;;;14.00;5.50;;;;;;;;;;5056496;28;20501;-82
2022/11/22 09:50:10;;;;;;;10.00;4.70;;;;;;;;;;5045827;28;20041;-82
2022/11/22 09:52:45;;;;;;;11.73;4.72;;;;;;;;;;5050804;28;20094;-81
2022/11/22 09:55:17;;;;;;;10.23;5.13;;;;;;;;;;5055343;28;20045;-81
2022/11/22 09:57:48;;;;;;;13.00;5.13;;;;;;;;;;5051173;28;20553;-81
2022/11/22 10:00:18;;;;;;;11.15;5.07;;;;;;;;;;5056411;28;20082;-81
2022/11/22 10:02:59;;;;;;;15.13;5.50;;;;;;;;;;5056177;28;20045;-81
2022/11/22 10:05:29;;;;;;;9.05;5.28;;;;;;;;;;5056218;28;20076;-81
2022/11/22 10:08:06;;;;;;;9.65;5.20;;;;;;;;;;5056111;28;20045;-81
2022/11/22 10:10:31;;;;;;;;;;;;;;;;;;5045819;28;20041;-81
2022/11/22 10:13:06;;;;;;;10.60;5.40;;;;;;;;;;5055999;28;19921;-81
2022/11/22 10:15:38;;;;;;;13.63;5.63;;;;;;;;;;5034212;28;20516;-81
2022/11/22 10:18:04;;;;;;;12.05;4.93;;;;;;;;;;5039146;28;20050;-81
2022/11/22 10:20:32;;;;;;;9.63;4.60;;;;;;;;;;5056369;28;20049;-81
2022/11/22 10:22:58;;;;;;;9.13;5.20;;;;;;;;;;5056893;28;20060;-81
2022/11/22 10:25:38;;;;;;;12.18;4.85;;;;;;;;;;5056227;28;20399;-81
2022/11/22 10:28:23;;;;;;;13.43;4.88;;;;;;;;;;5050427;28;20053;-81
2022/11/22 10:30:55;;;;;;;8.30;4.50;;;;;;;;;;5043047;28;20037;-81
2022/11/22 10:33:27;;;;;;;10.73;4.72;;;;;;;;;;5055361;28;20122;-82
2022/11/22 10:35:53;;;;;;;7.72;4.10;;;;;;;;;;5055057;28;20164;-81
2022/11/22 10:38:34;;;;;;;7.80;4.30;;;;;;;;;;5055670;28;20045;-81
2022/11/22 10:41:15;;;;;;;7.28;4.03;;;;;;;;;;5054617;28;20484;-81
2022/11/22 10:43:45;;;;;;;9.75;4.15;;;;;;;;;;5064581;28;20102;-81
2022/11/22 10:46:14;;;;;;;6.38;4.15;;;;;;;;;;5055545;28;20048;-83
2022/11/22 10:48:46;;;;;;;11.10;4.55;;;;;;;;;;5036537;28;20045;-80
2022/11/22 10:51:30;;;;;;;7.63;3.85;;;;;;;;;;5044487;28;20087;-79
2022/11/22 10:54:08;;;;;;;8.90;4.10;;;;;;;;;;5044284;28;20084;-80
2022/11/22 10:56:58;;;;;;;7.45;4.25;;;;;;;;;;5041222;28;20499;-79
2022/11/22 10:59:40;;;;;;;7.13;4.40;;;;;;;;;;5061663;28;20045;-79
2022/11/22 11:02:12;;;;;;;8.57;4.47;;;;;;;;;;5051664;28;20041;-79
2022/11/22 11:04:40;;;;;;;7.28;4.00;;;;;;;;;;5042583;28;20049;-80
2022/11/22 11:07:11;;;;;;;7.88;4.68;;;;;;;;;;5043099;28;20053;-80
2022/11/22 11:09:43;;;;;;;7.55;4.32;;;;;;;;;;5059488;28;20091;-80
2022/11/22 11:12:15;;;;;;;7.00;4.38;;;;;;;;;;5060953;28;20037;-79
2022/11/22 11:14:58;;;;;;;8.95;4.03;;;;;;;;;;5055842;28;20422;-79
2022/11/22 11:17:29;;;;;;;9.88;4.80;;;;;;;;;;5054670;28;20053;-80
2022/11/22 11:19:57;;;;;;;9.02;4.20;;;;;;;;;;5059056;28;20044;-79
2022/11/22 11:22:24;;;;;;;8.88;4.65;;;;;;;;;;5052608;28;20147;-77
2022/11/22 11:24:53;;;;;;;9.73;4.47;;;;;;;;;;5052067;28;20037;-76
2022/11/22 11:27:20;;;;;;;7.40;3.85;;;;;;;;;;5035291;28;20052;-76
2022/11/22 11:29:49;;;;;;;10.68;4.20;;;;;;;;;;5039599;28;20045;-78
2022/11/22 11:32:16;;;;;;;7.78;3.42;;;;;;;;;;5055768;28;20037;-77
2022/11/22 11:34:47;;;;;;;10.15;3.85;;;;;;;;;;5055618;28;20055;-77
2022/11/22 11:37:20;;;;;;;6.60;3.80;;;;;;;;;;5055960;28;20123;-79
2022/11/22 11:39:46;;;;;;;8.88;4.30;;;;;;;;;;5053893;28;20070;-77
2022/11/22 11:42:23;;;;;;;7.18;3.85;;;;;;;;;;5055717;28;20084;-77
2022/11/22 11:44:50;;;;;;;8.77;3.80;;;;;;;;;;5054432;28;20049;-77
2022/11/22 11:47:31;;;;;;;6.78;3.50;;;;;;;;;;5047577;28;20041;-77
2022/11/22 11:49:57;;;;;;;8.07;3.78;;;;;;;;;;5035366;28;20762;-80
2022/11/22 11:52:24;;;;;;;10.63;3.65;;;;;;;;;;5049694;28;20049;-78
2022/11/22 11:54:54;;;;;;;6.28;3.50;;;;;;;;;;5036463;28;20075;-78
2022/11/22 11:57:28;;;;;;;10.00;3.55;;;;;;;;;;5043954;28;20491;-78
2022/11/22 11:59:55;;;;;;;6.30;3.20;;;;;;;;;;5023122;28;20045;-77
2022/11/22 12:02:21;;;;;;;8.20;3.67;;;;;;;;;;5043237;28;20075;-77
2022/11/22 12:04:47;;;;;;;9.95;4.00;;;;;;;;;;5053716;28;20408;-77
2022/11/22 12:07:22;;;;;;;7.82;3.60;;;;;;;;;;5054020;28;20171;-77
2022/11/22 12:09:49;;;;;;;5.15;3.20;;;;;;;;;;5054991;28;20041;-77
2022/11/22 12:12:24;;;;;;;7.75;3.40;;;;;;;;;;5055058;28;20480;-77
2022/11/22 12:14:58;;;;;;;4.60;3.10;;;;;;;;;;5054453;28;20048;-77
2022/11/22 12:17:26;;;;;;;7.60;3.13;;;;;;;;;;5048586;28;20044;-77
2022/11/22 12:19:52;;;;;;;7.15;2.72;;;;;;;;;;5043437;28;20087;-77
2022/11/22 12:22:20;;;;;;;6.47;3.13;;;;;;;;;;5036559;28;20064;-77
2022/11/22 12:24:56;;;;;;;5.88;2.78;;;;;;;;;;5053920;28;20041;-77
2022/11/22 12:27:23;;;;;;;8.57;3.30;;;;;;;;;;5054948;28;20442;-78
2022/11/22 12:29:49;;;;;;;6.25;2.88;;;;;;;;;;5055217;28;20037;-78
2022/11/22 12:32:26;;;;;;;5.72;2.72;;;;;;;;;;5054838;28;20127;-79
2022/11/22 12:34:54;;;;;;;8.30;3.25;;;;;;;;;;5054207;28;20513;-79
2022/11/22 12:37:27;;;;;;;6.75;3.35;;;;;;;;;;5054547;28;20076;-79
2022/11/22 12:39:54;;;;;;;4.75;3.00;;;;;;;;;;5054753;28;20107;-78
2022/11/22 12:42:28;;;;;;;5.88;2.85;;;;;;;;;;5055074;28;20052;-79
2022/11/22 12:45:06;;;;;;;6.78;3.65;;;;;;;;;;5054756;28;20104;-79
2022/11/22 12:47:35;;;;;;;9.95;4.95;;;;;;;;;;5053540;28;20132;-79
2022/11/22 12:50:21;;;;;;;9.90;4.20;;;;;;;;;;5054576;28;20052;-79
2022/11/22 12:52:51;;;;;;;6.15;2.97;;;;;;;;;;5038443;28;20072;-79
2022/11/22 12:55:20;;;;;;;9.90;3.92;;;;;;;;;;5038931;28;20130;-79
2022/11/22 12:57:56;;;;;;;5.63;3.05;;;;;;;;;;5037605;28;20179;-79
2022/11/22 13:00:24;;;;;;;6.65;3.08;;;;;;;;;;5054821;28;20124;-79
2022/11/22 13:03:00;;;;;;;4.30;2.30;;;;;;;;;;5051206;28;20502;-79
2022/11/22 13:05:30;;;;;;;8.15;3.10;;;;;;;;;;5050932;28;20041;-79
2022/11/22 13:07:59;;;;;;;6.85;3.20;;;;;;;;;;5055834;28;20040;-79
2022/11/22 13:10:35;;;;;;;4.55;2.33;;;;;;;;;;5056081;28;20048;-79
2022/11/22 13:13:03;;;;;;;6.93;2.80;;;;;;;;;;5042619;28;20053;-79
2022/11/22 13:15:30;;;;;;;7.03;3.03;;;;;;;;;;5046684;28;20131;-79
2022/11/22 13:17:56;;;;;;;5.90;3.03;;;;;;;;;;5053030;28;20048;-79
2022/11/22 13:20:25;;;;;;;8.07;3.10;;;;;;;;;;5052588;28;20128;-79
2022/11/22 13:23:20;;;;;;;7.03;2.70;;;;;;;;;;5053037;28;20049;-79
2022/11/22 13:26:12;;;;;;;6.22;2.80;;;;;;;;;;4991856;28;20052;-79
2022/11/22 13:28:38;;;;;;;5.88;3.40;;;;;;;;;;4981652;28;20065;-79
2022/11/22 13:31:10;;;;;;;8.93;3.20;;;;;;;;;;4991878;28;20121;-79
2022/11/22 13:33:38;;;;;;;6.88;3.03;;;;;;;;;;4991872;28;20050;-79
2022/11/22 13:36:24;;;;;;;4.43;2.70;;;;;;;;;;4992507;28;20424;-80
2022/11/22 13:38:52;;;;;;;5.32;2.88;;;;;;;;;;4966922;28;20062;-79
2022/11/22 13:41:22;;;;;;;7.55;3.03;;;;;;;;;;4975769;28;20493;-79
2022/11/22 13:43:58;;;;;;;6.00;2.97;;;;;;;;;;4992972;28;20089;-79
2022/11/22 13:47:03;;;;;;;5.18;2.80;;;;;;;;;;4990328;28;20524;-80
2022/11/22 13:49:32;;;;;;;4.50;2.30;;;;;;;;;;4957307;29;20557;-80
2022/11/22 13:51:59;;;;;;;7.50;2.60;;;;;;;;;;4957338;29;20094;-80
2022/11/22 13:54:45;;;;;;;4.90;2.70;;;;;;;;;;4941883;29;20055;-80
2022/11/22 13:57:30;;;;;;;3.60;2.60;;;;;;;;;;4929480;29;20055;-80
2022/11/22 14:00:11;;;;;;;4.90;2.55;;;;;;;;;;4957279;29;20405;-80
2022/11/22 14:02:38;;;;;;;8.77;2.80;;;;;;;;;;5000849;28;21075;-80
2022/11/22 14:05:16;;;;;;;6.50;2.75;;;;;;;;;;4999510;28;20046;-80
2022/11/22 14:07:43;;;;;;;7.22;2.63;;;;;;;;;;4997623;28;20050;-80
2022/11/22 14:10:27;;;;;;;10.13;2.60;;;;;;;;;;5014389;28;20504;-80
2022/11/22 14:12:54;;;;;;;5.50;2.55;;;;;;;;;;5009939;28;20059;-80
2022/11/22 14:15:28;;;;;;;5.50;2.45;;;;;;;;;;5013918;28;20061;-77
2022/11/22 14:18:12;;;;;;;5.10;2.50;;;;;;;;;;5012453;28;20050;-77
2022/11/22 14:20:46;;;;;;;5.03;2.80;;;;;;;;;;5028573;28;20045;-77
2022/11/22 14:23:15;;;;;;;4.43;2.30;;;;;;;;;;5048036;28;20124;-77
2022/11/22 14:25:56;;;;;;;6.00;2.63;;;;;;;;;;5043346;28;20045;-77
2022/11/22 14:28:25;;;;;;;4.70;2.30;;;;;;;;;;5052891;28;20437;-77
2022/11/22 14:30:52;;;;;;;5.32;2.30;;;;;;;;;;5054366;28;20040;-77
2022/11/22 14:33:18;;;;;;;6.68;2.55;;;;;;;;;;5054346;28;20037;-77
2022/11/22 14:36:05;;;;;;;4.70;2.20;;;;;;;;;;5054486;28;20052;-77
2022/11/22 14:38:32;;;;;;;6.13;2.00;;;;;;;;;;5055206;28;20141;-77
2022/11/22 14:41:17;;;;;;;4.28;2.40;;;;;;;;;;5056160;28;20041;-77
2022/11/22 14:43:43;;;;;;;4.63;2.30;;;;;;;;;;5050334;28;20116;-76
2022/11/22 14:46:11;;;;;;;4.13;2.22;;;;;;;;;;5054578;28;20041;-77